createdAt,value
2017-09-12T00:01:56.206Z,8.83
2017-09-12T00:04:25.239Z,4.00
2017-09-12T00:06:54.344Z,5.70
2017-09-12T00:09:22.635Z,4.13
2017-09-12T00:11:50.940Z,4.43
2017-09-12T00:14:19.707Z,5.90
2017-09-12T00:16:48.761Z,7.90
2017-09-12T00:19:17.805Z,3.80
2017-09-12T00:21:46.148Z,6.23
2017-09-12T00:24:15.197Z,3.77
2017-09-12T00:26:44.611Z,5.10
2017-09-12T00:29:13.730Z,7.90
2017-09-12T00:31:42.403Z,4.60
2017-09-12T00:34:11.442Z,5.77
2017-09-12T00:36:39.784Z,4.97
2017-09-12T00:39:08.088Z,11.13
2017-09-12T00:41:36.372Z,6.20
2017-09-12T00:44:04.699Z,6.13
2017-09-12T00:46:33.004Z,6.03
2017-09-12T00:49:01.284Z,7.73
2017-09-12T00:51:30.731Z,7.67
2017-09-12T00:54:00.511Z,8.10
2017-09-12T00:56:28.787Z,2.27
2017-09-12T00:58:57.874Z,6.10
2017-09-12T01:01:27.502Z,9.70
2017-09-12T01:03:57.041Z,8.47
2017-09-12T01:06:25.991Z,5.40
2017-09-12T01:08:54.281Z,5.63
2017-09-12T01:11:23.925Z,5.00
2017-09-12T01:13:53.502Z,6.00
2017-09-12T01:16:23.030Z,7.07
2017-09-12T01:18:51.977Z,8.13
2017-09-12T01:21:21.823Z,8.23
2017-09-12T01:23:50.131Z,5.97
2017-09-12T01:26:18.429Z,7.37
2017-09-12T01:28:46.750Z,6.60
2017-09-12T01:31:15.037Z,6.97
2017-09-12T01:33:43.311Z,4.83
2017-09-12T01:36:12.070Z,6.83
2017-09-12T01:38:41.101Z,4.37
2017-09-12T01:41:10.159Z,3.53
2017-09-12T01:43:39.378Z,9.30
2017-09-12T01:46:09.031Z,2.10
2017-09-12T01:48:37.611Z,4.97
2017-09-12T01:51:05.950Z,6.33
2017-09-12T01:53:34.241Z,7.57
2017-09-12T01:56:03.282Z,7.00
2017-09-12T01:58:31.900Z,6.63
2017-09-12T02:01:01.311Z,5.53
2017-09-12T02:03:29.590Z,5.53
2017-09-12T02:05:57.927Z,5.60
2017-09-12T02:08:27.718Z,8.33
2017-09-12T02:10:56.763Z,7.90
2017-09-12T02:13:25.095Z,3.47
2017-09-12T02:15:54.507Z,3.87
2017-09-12T02:18:23.193Z,6.20
2017-09-12T02:20:53.040Z,7.73
2017-09-12T02:23:21.351Z,7.13
2017-09-12T02:25:49.656Z,9.63
2017-09-12T02:28:19.507Z,3.37
2017-09-12T02:30:48.596Z,5.30
2017-09-12T02:33:19.275Z,4.70
2017-09-12T02:35:48.556Z,1.67
2017-09-12T02:38:18.199Z,3.33
2017-09-12T02:40:47.123Z,2.33
2017-09-12T02:43:16.261Z,1.80
2017-09-12T02:45:45.300Z,1.60
2017-09-12T02:48:13.575Z,0.93
2017-09-12T02:50:41.967Z,1.80
2017-09-12T02:53:11.754Z,6.93
2017-09-12T02:55:40.027Z,4.27
2017-09-12T02:58:09.126Z,3.40
2017-09-12T03:00:38.770Z,3.93
2017-09-12T03:03:08.308Z,5.47
2017-09-12T03:05:36.951Z,2.57
2017-09-12T03:08:05.227Z,4.53
2017-09-12T03:10:33.503Z,5.63
2017-09-12T03:13:03.169Z,2.33
2017-09-12T03:15:31.714Z,3.80
2017-09-12T03:17:59.986Z,3.80
2017-09-12T03:20:29.653Z,1.20
2017-09-12T03:22:59.310Z,2.93
2017-09-12T03:25:27.583Z,2.03
2017-09-12T03:27:55.956Z,2.97
2017-09-12T03:30:24.242Z,2.00
2017-09-12T03:32:52.545Z,4.83
2017-09-12T03:35:21.660Z,1.73
2017-09-12T03:37:49.985Z,2.50
2017-09-12T03:40:20.052Z,6.40
2017-09-12T03:42:48.254Z,1.90
2017-09-12T03:45:17.299Z,4.30
2017-09-12T03:47:46.715Z,1.67
2017-09-12T03:50:15.435Z,5.70
2017-09-12T03:52:44.475Z,2.37
2017-09-12T03:55:13.514Z,2.70
2017-09-12T03:57:41.858Z,4.60
2017-09-12T04:00:10.895Z,4.00
2017-09-12T04:02:39.562Z,5.40
2017-09-12T04:05:09.395Z,5.03
2017-09-12T04:07:37.689Z,3.30
2017-09-12T04:10:05.966Z,3.73
2017-09-12T04:12:34.283Z,6.37
2017-09-12T04:15:03.332Z,7.00
2017-09-12T04:17:32.375Z,3.30
2017-09-12T04:20:00.700Z,9.87
2017-09-12T04:22:28.979Z,3.03
2017-09-12T04:24:58.386Z,6.37
2017-09-12T04:27:26.718Z,8.80
2017-09-12T04:29:54.990Z,3.63
2017-09-12T04:32:23.288Z,5.77
2017-09-12T04:34:52.390Z,8.07
2017-09-12T04:37:21.454Z,7.90
2017-09-12T04:39:50.531Z,3.70
2017-09-12T04:42:20.027Z,5.33
2017-09-12T04:44:48.751Z,7.00
2017-09-12T04:47:17.026Z,6.33
2017-09-12T04:49:46.728Z,7.17
2017-09-12T04:52:15.271Z,9.53
2017-09-12T04:54:43.551Z,7.03
2017-09-12T04:57:11.883Z,9.50
2017-09-12T04:59:40.159Z,4.47
2017-09-12T05:02:08.458Z,5.80
2017-09-12T05:04:38.171Z,7.40
2017-09-12T05:07:06.324Z,7.47
2017-09-12T05:09:35.952Z,5.23
2017-09-12T05:12:04.563Z,9.23
2017-09-12T05:14:32.843Z,6.10
2017-09-12T05:17:02.462Z,6.73
2017-09-12T05:19:31.719Z,6.33
2017-09-12T05:22:00.386Z,5.67
2017-09-12T05:24:30.007Z,9.40
2017-09-12T05:26:58.616Z,7.03
2017-09-12T05:29:26.887Z,7.57
2017-09-12T05:31:55.160Z,9.57
2017-09-12T05:34:23.538Z,6.23
2017-09-12T05:36:53.183Z,12.10
2017-09-12T05:39:21.379Z,8.13
2017-09-12T05:41:49.740Z,8.97
2017-09-12T05:44:19.568Z,9.67
2017-09-12T05:46:47.852Z,9.57
2017-09-12T05:49:16.199Z,10.00
2017-09-12T05:51:44.474Z,9.37
2017-09-12T05:54:12.751Z,14.10
2017-09-12T05:56:41.090Z,14.70
2017-09-12T05:59:10.880Z,9.43
2017-09-12T06:01:40.295Z,10.23
2017-09-12T06:04:08.666Z,13.27
2017-09-12T06:06:38.305Z,11.73
2017-09-12T06:09:06.483Z,11.30
2017-09-12T06:11:34.821Z,13.63
2017-09-12T06:14:03.500Z,11.67
2017-09-12T06:16:32.927Z,14.47
2017-09-12T06:19:01.287Z,9.43
2017-09-12T06:21:29.568Z,17.07
2017-09-12T06:23:57.842Z,11.23
2017-09-12T06:26:26.186Z,15.03
2017-09-12T06:28:54.480Z,11.03
2017-09-12T06:31:23.911Z,12.50
2017-09-12T06:33:53.618Z,16.53
2017-09-12T06:36:22.555Z,14.23
2017-09-12T06:38:52.205Z,15.60
2017-09-12T06:41:21.945Z,12.30
2017-09-12T06:43:51.614Z,13.67
2017-09-12T06:46:20.548Z,9.97
2017-09-12T06:48:49.652Z,11.07
2017-09-12T06:51:19.502Z,10.80
2017-09-12T06:53:48.573Z,10.90
2017-09-12T06:56:16.946Z,15.83
2017-09-12T06:58:45.231Z,9.87
2017-09-12T07:01:13.515Z,9.77
2017-09-12T07:03:41.840Z,7.57
2017-09-12T07:06:11.464Z,8.57
2017-09-12T07:08:39.615Z,6.60
2017-09-12T07:11:07.978Z,7.87
2017-09-12T07:13:37.635Z,11.23
2017-09-12T07:16:12.967Z,7.93
2017-09-12T07:18:41.502Z,6.97
2017-09-12T07:21:09.783Z,9.53
2017-09-12T07:23:38.874Z,7.73
2017-09-12T07:26:07.177Z,9.40
2017-09-12T07:28:36.832Z,6.87
2017-09-12T07:31:06.159Z,6.93
2017-09-12T07:33:34.437Z,7.70
2017-09-12T07:36:02.712Z,9.53
2017-09-12T07:38:31.050Z,11.83
2017-09-12T07:40:59.331Z,8.43
2017-09-12T07:43:28.966Z,11.27
2017-09-12T07:45:57.950Z,11.30
2017-09-12T07:48:27.562Z,8.20
2017-09-12T07:50:55.718Z,7.30
2017-09-12T07:53:25.382Z,9.93
2017-09-12T07:55:53.955Z,7.37
2017-09-12T07:58:22.254Z,7.50
2017-09-12T08:00:50.747Z,6.70
2017-09-12T08:03:20.536Z,6.10
2017-09-12T08:05:48.822Z,6.97
2017-09-12T08:08:17.931Z,7.43
2017-09-12T08:10:46.199Z,8.40
2017-09-12T08:13:14.479Z,7.03
2017-09-12T08:15:42.822Z,6.90
2017-09-12T08:18:12.607Z,10.07
2017-09-12T08:20:42.267Z,10.23
2017-09-12T08:23:10.855Z,12.50
2017-09-12T08:25:40.639Z,9.90
2017-09-12T08:28:09.711Z,8.43
2017-09-12T08:30:38.052Z,8.80
2017-09-12T08:33:06.335Z,9.13
2017-09-12T08:35:35.778Z,12.93
2017-09-12T08:38:04.099Z,10.53
2017-09-12T08:40:33.734Z,6.83
2017-09-12T08:43:02.321Z,7.73
2017-09-12T08:45:30.631Z,12.57
2017-09-12T08:47:59.679Z,11.53
2017-09-12T08:50:27.994Z,12.10
2017-09-12T08:52:57.657Z,6.80
2017-09-12T08:55:26.208Z,10.47
2017-09-12T08:57:54.530Z,7.27
2017-09-12T09:00:22.856Z,7.07
2017-09-12T09:02:51.244Z,6.10
2017-09-12T09:05:20.702Z,7.43
2017-09-12T09:07:50.542Z,9.43
2017-09-12T09:10:18.850Z,7.90
2017-09-12T09:12:47.983Z,7.53
2017-09-12T09:15:17.483Z,8.37
2017-09-12T09:17:45.759Z,13.47
2017-09-12T09:20:14.066Z,5.67
2017-09-12T09:22:44.162Z,7.03
2017-09-12T09:25:12.312Z,6.30
2017-09-12T09:27:41.942Z,12.27
2017-09-12T09:30:11.671Z,6.30
2017-09-12T09:32:39.949Z,5.60
2017-09-12T09:35:08.242Z,7.50
2017-09-12T09:37:38.097Z,5.20
2017-09-12T09:40:07.748Z,5.37
2017-09-12T09:42:36.687Z,8.07
2017-09-12T09:45:05.002Z,6.23
2017-09-12T09:47:33.284Z,5.87
2017-09-12T09:50:01.560Z,7.87
2017-09-12T09:52:31.019Z,5.97
2017-09-12T09:54:59.306Z,5.07
2017-09-12T09:57:27.580Z,7.73
2017-09-12T09:59:55.930Z,7.80
2017-09-12T10:02:25.706Z,8.20
2017-09-12T10:04:53.987Z,9.07
2017-09-12T10:07:22.349Z,7.00
2017-09-12T10:09:51.414Z,10.20
2017-09-12T10:12:20.845Z,8.80
2017-09-12T10:14:49.594Z,9.50
2017-09-12T10:17:17.908Z,6.13
2017-09-12T10:19:46.191Z,5.80
2017-09-12T10:22:14.514Z,6.23
2017-09-12T10:24:44.134Z,6.57
2017-09-12T10:27:13.060Z,4.10
2017-09-12T10:29:41.399Z,5.40
2017-09-12T10:32:10.443Z,4.30
2017-09-12T10:34:38.741Z,4.10
2017-09-12T10:37:07.071Z,4.50
2017-09-12T10:39:35.352Z,8.37
2017-09-12T10:42:03.624Z,3.40
2017-09-12T10:44:31.954Z,6.30
2017-09-12T10:47:01.003Z,9.70
2017-09-12T10:49:30.044Z,8.80
2017-09-12T10:51:58.370Z,7.13
2017-09-12T10:54:27.418Z,5.00
2017-09-12T10:56:55.692Z,6.70
2017-09-12T10:59:25.363Z,9.27
2017-09-12T11:01:53.933Z,9.63
2017-09-12T11:04:22.228Z,4.83
2017-09-12T11:06:50.575Z,3.23
2017-09-12T11:09:20.003Z,8.73
2017-09-12T11:11:48.318Z,2.80
2017-09-12T11:14:17.411Z,5.77
2017-09-12T11:16:47.228Z,5.50
2017-09-12T11:19:15.503Z,7.80
2017-09-12T11:21:45.336Z,6.73
2017-09-12T11:24:13.606Z,8.70
2017-09-12T11:26:41.892Z,6.40
2017-09-12T11:29:11.755Z,7.07
2017-09-12T11:31:40.028Z,3.47
2017-09-12T11:34:09.650Z,7.27
2017-09-12T11:36:39.206Z,5.47
2017-09-12T11:39:07.358Z,4.90
2017-09-12T11:41:36.031Z,5.87
2017-09-12T11:44:04.367Z,4.50
2017-09-12T11:46:33.778Z,5.03
2017-09-12T11:49:02.052Z,4.77
2017-09-12T11:51:30.391Z,5.90
2017-09-12T11:53:58.654Z,3.17
2017-09-12T11:56:26.926Z,4.03
2017-09-12T11:58:55.269Z,3.27
2017-09-12T12:01:24.887Z,5.27
2017-09-12T12:03:53.055Z,6.43
2017-09-12T12:06:21.413Z,4.80
2017-09-12T12:08:51.075Z,2.60
2017-09-12T12:11:20.750Z,9.03
2017-09-12T12:13:50.460Z,7.43
2017-09-12T12:16:19.018Z,3.77
2017-09-12T12:18:47.303Z,4.60
2017-09-12T12:21:15.619Z,3.63
2017-09-12T12:23:43.892Z,3.67
2017-09-12T12:26:12.167Z,3.27
2017-09-12T12:28:41.646Z,6.00
2017-09-12T12:31:09.931Z,3.17
2017-09-12T12:33:38.227Z,3.73
2017-09-12T12:36:06.545Z,3.13
2017-09-12T12:38:34.830Z,3.50
2017-09-12T12:41:03.099Z,3.17
2017-09-12T12:43:31.414Z,4.50
2017-09-12T12:46:01.199Z,5.13
2017-09-12T12:48:29.475Z,4.37
2017-09-12T12:50:58.571Z,4.93
2017-09-12T12:54:54.894Z,5.63
2017-09-12T12:57:23.245Z,5.57
2017-09-12T12:59:53.034Z,7.93
2017-09-12T13:02:21.312Z,6.03
2017-09-12T13:04:49.647Z,4.60
2017-09-12T13:07:17.930Z,3.23
2017-09-12T13:09:46.207Z,2.70
2017-09-12T13:12:14.540Z,4.30
2017-09-12T13:14:44.162Z,5.03
2017-09-12T13:17:12.315Z,3.20
2017-09-12T13:19:40.638Z,4.03
2017-09-12T13:22:08.914Z,1.97
2017-09-12T13:24:38.706Z,6.63
2017-09-12T13:27:07.053Z,2.00
2017-09-12T13:29:36.706Z,2.00
2017-09-12T13:32:05.292Z,2.23
2017-09-12T13:34:33.623Z,4.57
2017-09-12T13:37:02.702Z,3.63
2017-09-12T13:39:30.992Z,1.87
2017-09-12T13:41:59.340Z,2.53
2017-09-12T13:44:28.958Z,3.10
2017-09-12T13:46:57.103Z,1.73
2017-09-12T13:49:25.476Z,5.00
2017-09-12T13:51:55.246Z,3.80
2017-09-12T13:54:23.523Z,2.97
2017-09-12T13:56:51.860Z,2.53
2017-09-12T13:59:20.130Z,1.63
2017-09-12T14:01:48.406Z,1.70
2017-09-12T14:04:18.238Z,4.37
2017-09-12T14:06:47.871Z,3.90
2017-09-12T14:09:16.018Z,1.40
2017-09-12T14:11:45.278Z,2.57
2017-09-12T14:14:14.329Z,4.47
2017-09-12T14:16:43.968Z,2.67
2017-09-12T14:19:13.721Z,4.87
2017-09-12T14:21:42.003Z,3.43
2017-09-12T14:24:11.063Z,1.93
2017-09-12T14:26:40.957Z,3.00
2017-09-12T14:29:09.272Z,2.17
2017-09-12T14:31:37.587Z,3.27
2017-09-12T14:34:05.939Z,3.40
2017-09-12T14:36:34.218Z,2.50
2017-09-12T14:39:04.291Z,2.73
2017-09-12T14:41:34.128Z,3.50
2017-09-12T14:44:02.422Z,8.27
2017-09-12T14:46:30.699Z,2.93
2017-09-12T14:48:59.022Z,2.73
2017-09-12T14:51:28.813Z,4.20
2017-09-12T14:53:57.087Z,2.33
2017-09-12T14:56:26.207Z,5.30
2017-09-12T14:58:55.836Z,2.37
2017-09-12T15:01:24.383Z,2.30
2017-09-12T15:03:54.068Z,5.03
2017-09-12T15:06:23.576Z,4.27
2017-09-12T15:08:52.876Z,4.13
2017-09-12T15:11:21.191Z,3.90
2017-09-12T15:13:49.540Z,9.37
2017-09-12T15:16:17.816Z,4.03
2017-09-12T15:18:46.135Z,7.10
2017-09-12T15:21:15.936Z,1.93
2017-09-12T15:23:44.226Z,3.33
2017-09-12T15:26:12.589Z,2.40
2017-09-12T15:28:42.370Z,7.47
2017-09-12T15:31:10.667Z,2.77
2017-09-12T15:33:39.032Z,3.40
2017-09-12T15:36:08.839Z,3.27
2017-09-12T15:38:38.501Z,2.80
2017-09-12T15:41:08.075Z,1.83
2017-09-12T15:43:37.617Z,2.67
2017-09-12T15:46:07.149Z,3.83
2017-09-12T15:48:36.770Z,1.80
2017-09-12T15:51:05.002Z,4.40
2017-09-12T15:53:33.319Z,1.60
2017-09-12T15:56:03.156Z,6.77
2017-09-12T15:58:31.466Z,4.97
2017-09-12T16:01:00.139Z,2.87
2017-09-12T16:03:28.478Z,3.23
2017-09-12T16:05:57.536Z,3.40
2017-09-12T16:08:25.816Z,3.13
2017-09-12T16:10:54.176Z,2.60
2017-09-12T16:13:22.451Z,3.47
2017-09-12T16:15:50.739Z,5.33
2017-09-12T16:18:20.197Z,2.17
2017-09-12T16:20:49.248Z,2.70
2017-09-12T16:23:18.296Z,4.70
2017-09-12T16:25:47.966Z,3.90
2017-09-12T16:28:16.523Z,2.63
2017-09-12T16:30:44.805Z,3.43
2017-09-12T16:33:13.179Z,3.63
2017-09-12T16:35:42.840Z,2.97
2017-09-12T16:38:11.027Z,4.10
2017-09-12T16:40:40.886Z,2.63
2017-09-12T16:43:09.234Z,2.23
2017-09-12T16:45:37.578Z,3.10
2017-09-12T16:48:07.307Z,5.63
2017-09-12T16:50:36.633Z,2.30
2017-09-12T16:53:06.070Z,6.33
2017-09-12T16:55:34.415Z,2.40
2017-09-12T16:58:03.836Z,3.70
2017-09-12T17:00:32.879Z,6.67
2017-09-12T17:03:01.199Z,5.00
2017-09-12T17:05:30.243Z,2.43
2017-09-12T17:07:58.560Z,3.00
2017-09-12T17:10:28.399Z,3.30
2017-09-12T17:12:56.680Z,4.40
2017-09-12T17:15:26.474Z,2.47
2017-09-12T17:17:54.811Z,5.00
2017-09-12T17:20:23.088Z,4.27
2017-09-12T17:22:51.370Z,2.63
2017-09-12T17:25:19.698Z,2.83
2017-09-12T17:27:47.979Z,4.47
2017-09-12T17:30:16.264Z,3.63
2017-09-12T17:32:45.748Z,2.90
2017-09-12T17:35:14.074Z,2.37
2017-09-12T17:37:42.354Z,4.93
2017-09-12T17:40:10.737Z,4.30
2017-09-12T17:42:40.396Z,5.90
2017-09-12T17:45:10.103Z,2.70
2017-09-12T17:47:39.920Z,3.07
2017-09-12T17:50:08.244Z,5.43
2017-09-12T17:52:36.702Z,4.63
2017-09-12T17:55:06.574Z,3.97
2017-09-12T17:57:34.909Z,2.40
2017-09-12T18:00:03.251Z,3.47
2017-09-12T18:02:31.523Z,1.80
2017-09-12T18:04:59.811Z,3.10
2017-09-12T18:07:28.927Z,3.50
2017-09-12T18:09:57.211Z,2.83
2017-09-12T18:12:25.493Z,5.60
2017-09-12T18:14:53.816Z,2.67
2017-09-12T18:17:22.091Z,2.63
2017-09-12T18:19:51.727Z,3.00
2017-09-12T18:22:21.487Z,4.73
2017-09-12T18:24:49.766Z,3.30
2017-09-12T18:27:19.395Z,4.47
2017-09-12T18:29:48.407Z,3.90
2017-09-12T18:32:18.192Z,8.10
2017-09-12T18:34:46.859Z,9.43
2017-09-12T18:37:16.527Z,4.00
2017-09-12T18:39:44.684Z,3.63
2017-09-12T18:42:12.989Z,4.80
2017-09-12T18:44:42.683Z,8.60
2017-09-12T18:47:10.872Z,6.00
2017-09-12T18:49:39.203Z,4.33
2017-09-12T18:52:08.943Z,3.53
2017-09-12T18:54:37.527Z,2.67
2017-09-12T18:57:06.605Z,4.80
2017-09-12T18:59:36.109Z,4.77
2017-09-12T19:02:05.146Z,1.90
2017-09-12T19:04:33.492Z,2.73
2017-09-12T19:07:01.839Z,3.83
2017-09-12T19:09:30.883Z,3.80
2017-09-12T19:12:00.507Z,7.67
2017-09-12T19:14:30.057Z,2.80
2017-09-12T19:16:58.207Z,7.43
2017-09-12T19:19:26.475Z,3.80
2017-09-12T19:21:54.807Z,3.20
2017-09-12T19:24:23.083Z,3.60
2017-09-12T19:26:51.360Z,3.67
2017-09-12T19:29:20.816Z,6.03
2017-09-12T19:31:49.101Z,3.50
2017-09-12T19:34:17.388Z,4.73
2017-09-12T19:36:47.058Z,6.93
2017-09-12T19:39:15.615Z,8.57
2017-09-12T19:41:43.898Z,5.20
2017-09-12T19:44:13.391Z,2.63
2017-09-12T19:46:42.444Z,3.07
2017-09-12T19:49:12.149Z,2.87
2017-09-12T19:51:40.768Z,5.70
2017-09-12T19:54:10.430Z,2.83
2017-09-12T19:56:39.768Z,2.93
2017-09-12T19:59:08.148Z,5.60
2017-09-12T20:01:36.677Z,6.13
2017-09-12T20:04:05.021Z,2.60
2017-09-12T20:06:34.139Z,7.70
2017-09-12T20:09:02.423Z,2.50
2017-09-12T20:11:30.699Z,6.70
2017-09-12T20:13:59.027Z,5.70
2017-09-12T20:16:27.306Z,4.60
2017-09-12T20:18:55.596Z,4.93
2017-09-12T20:21:25.273Z,2.40
2017-09-12T20:23:53.848Z,6.07
2017-09-12T20:26:23.482Z,7.30
2017-09-12T20:28:52.078Z,4.40
2017-09-12T20:31:22.373Z,3.50
2017-09-12T20:36:26.259Z,4.67
2017-09-12T20:38:56.095Z,2.80
2017-09-12T20:41:24.368Z,5.43
2017-09-12T20:43:52.732Z,3.77
2017-09-12T20:46:22.150Z,5.20
2017-09-12T20:48:50.433Z,5.03
2017-09-12T20:51:18.767Z,6.97
2017-09-12T20:53:48.561Z,5.60
2017-09-12T20:56:17.607Z,6.00
2017-09-12T20:58:47.067Z,5.23
2017-09-12T21:01:15.350Z,8.30
2017-09-12T21:03:43.639Z,3.23
2017-09-12T21:06:12.970Z,2.50
2017-09-12T21:08:42.616Z,2.70
2017-09-12T21:11:12.307Z,5.47
2017-09-12T21:13:41.433Z,3.50
2017-09-12T21:16:09.739Z,13.50
2017-09-12T21:18:38.039Z,5.80
2017-09-12T21:21:06.392Z,3.53
2017-09-12T21:23:36.131Z,4.07
2017-09-12T21:26:04.284Z,5.77
2017-09-12T21:28:32.622Z,2.90
2017-09-12T21:31:02.247Z,2.57
2017-09-12T21:33:30.394Z,6.00
2017-09-12T21:35:58.747Z,2.63
2017-09-12T21:38:27.419Z,4.93
2017-09-12T21:40:55.707Z,6.40
2017-09-12T21:43:25.204Z,5.30
2017-09-12T21:45:53.502Z,2.30
2017-09-12T21:48:22.902Z,8.50
2017-09-12T21:50:52.569Z,3.10
2017-09-12T21:53:21.132Z,4.23
2017-09-12T21:55:50.759Z,3.80
2017-09-12T21:58:19.355Z,7.77
2017-09-12T22:00:47.627Z,5.90
2017-09-12T22:03:17.248Z,4.37
2017-09-12T22:05:45.491Z,5.63
2017-09-12T22:08:13.758Z,2.80
2017-09-12T22:10:42.031Z,5.37
2017-09-12T22:13:10.632Z,4.03
2017-09-12T22:15:38.925Z,5.87
2017-09-12T22:18:07.236Z,2.50
2017-09-12T22:20:37.128Z,4.63
2017-09-12T22:23:06.933Z,4.80
2017-09-12T22:25:36.401Z,4.83
2017-09-12T22:28:05.587Z,4.60
2017-09-12T22:30:33.863Z,3.33
2017-09-12T22:33:03.490Z,9.10
2017-09-12T22:35:33.037Z,4.67
2017-09-12T22:38:02.538Z,4.50
2017-09-12T22:40:31.083Z,5.17
2017-09-12T22:42:59.401Z,6.33
2017-09-12T22:45:29.535Z,6.77
2017-09-12T22:47:57.811Z,3.10
2017-09-12T22:50:26.144Z,4.40
2017-09-12T22:52:54.429Z,5.00
2017-09-12T22:55:22.699Z,7.07
2017-09-12T22:57:51.030Z,4.43
2017-09-12T23:00:20.450Z,4.07
2017-09-12T23:02:48.751Z,3.33
2017-09-12T23:05:18.406Z,7.80
2017-09-12T23:07:46.948Z,7.10
2017-09-12T23:10:15.229Z,5.40
2017-09-12T23:12:44.910Z,7.67
2017-09-12T23:15:13.455Z,3.83
2017-09-12T23:17:42.875Z,4.83
2017-09-12T23:20:11.464Z,2.33
2017-09-12T23:22:40.898Z,4.70
2017-09-12T23:25:10.536Z,5.00
2017-09-12T23:27:39.511Z,6.87
2017-09-12T23:30:07.803Z,8.07
2017-09-12T23:32:37.444Z,2.60
2017-09-12T23:35:05.963Z,6.20
2017-09-12T23:37:35.062Z,3.10
2017-09-12T23:40:04.115Z,5.87
2017-09-12T23:42:33.499Z,6.27
2017-09-12T23:45:02.540Z,6.60
2017-09-12T23:47:32.158Z,6.73
2017-09-12T23:50:01.136Z,5.20
2017-09-12T23:52:29.411Z,9.17
2017-09-12T23:54:57.686Z,5.43
2017-09-12T23:57:26.777Z,7.80
2017-09-12T23:59:55.058Z,5.03
